Terminal Aerodrome Forecast
Issued by NWS Wichita, KS

Home | Current Version | Previous Version | Text Only | Print | Product List | Glossary On
Versions: 1 2 3 4 5 6 7 8 9 10 11 12 13 14 15 16 17 18 19 20 21 22
000
FTUS43 KICT 172337
TAFICT
TAF
KICT 172337Z 1800/1824 19011KT P6SM SCT200
     FM180600 25013KT P6SM SCT250
     FM181100 34026G34KT P6SM BKN030
     FM181400 34027G36KT P6SM SCT025
     FM182200 33019G27KT P6SM SKC=

USA.gov is the U.S. government's official web portal to all federal, state and local government web resources and services.